Time;durP1;ratioP1;P1;durP2;ratioP2;P2;SDS_P1;SDS_P2;PMS_P1;PMS_P2;Temp;Humidity;BMP_temperature;BMP_pressure;BME280_temperature;BME280_humidity;BME280_pressure;Samples;Min_cycle;Max_cycle;Signal;HPM_P1;HPM_P2
2023/11/26 00:03:03;;;;;;;3.37;2.13;;;;;;;2.26;100.00;101149.16;6152518;28;21592;-69
2023/11/26 00:06:24;;;;;;;2.67;1.73;;;;;;;2.24;100.00;101148.38;6136497;28;20235;-68
2023/11/26 00:09:45;;;;;;;3.33;2.27;;;;;;;2.28;100.00;101147.25;6133894;28;20563;-69
2023/11/26 00:13:06;;;;;;;2.57;2.17;;;;;;;2.26;100.00;101158.91;6135183;28;20854;-70
2023/11/26 00:16:37;;;;;;;1.90;1.80;;;;;;;2.17;100.00;101146.09;6139076;28;20242;-70
2023/11/26 00:20:00;;;;;;;2.20;1.40;;;;;;;2.15;100.00;101142.66;6119851;28;20238;-70
2023/11/26 00:23:21;;;;;;;2.70;2.23;;;;;;;2.11;100.00;101146.38;6132517;28;20250;-69
2023/11/26 00:26:42;;;;;;;1.37;1.20;;;;;;;2.12;100.00;101148.13;6133965;28;22463;-68
2023/11/26 00:30:05;;;;;;;3.53;2.67;;;;;;;2.11;100.00;101151.69;6134896;28;21657;-68
2023/11/26 00:33:26;;;;;;;1.47;1.30;;;;;;;2.06;100.00;101151.94;6135341;28;20246;-69
2023/11/26 00:36:48;;;;;;;16.43;3.93;;;;;;;2.05;100.00;101158.19;6145876;28;20684;-69
2023/11/26 00:40:12;;;;;;;2.00;1.53;;;;;;;2.04;100.00;101167.13;6146463;28;20239;-69
2023/11/26 00:43:33;;;;;;;3.37;2.50;;;;;;;1.98;100.00;101167.38;6145452;28;20242;-69
2023/11/26 00:46:54;;;;;;;1.90;1.37;;;;;;;1.99;100.00;101166.47;6144758;28;20802;-69
2023/11/26 00:50:17;;;;;;;1.97;1.77;;;;;;;1.96;100.00;101163.09;6146894;28;20227;-72
2023/11/26 00:53:39;;;;;;;3.30;2.33;;;;;;;1.95;100.00;101170.22;6143273;28;20235;-70
2023/11/26 00:57:00;;;;;;;2.10;2.00;;;;;;;1.95;100.00;101170.22;6150960;28;21560;-70
2023/11/26 01:00:21;;;;;;;1.70;1.60;;;;;;;1.93;100.00;101187.16;6151243;28;20239;-69
2023/11/26 01:03:42;;;;;;;2.30;1.70;;;;;;;1.97;100.00;101188.72;6145332;28;20230;-69
2023/11/26 01:07:03;;;;;;;1.77;1.67;;;;;;;1.86;100.00;101193.69;6120607;28;20235;-69
2023/11/26 01:10:26;;;;;;;1.30;1.20;;;;;;;1.87;100.00;101204.28;6142607;28;20239;-71
2023/11/26 01:13:47;;;;;;;2.87;2.60;;;;;;;1.83;100.00;101207.16;6130407;28;20235;-69
2023/11/26 01:17:08;;;;;;;2.27;2.13;;;;;;;1.74;100.00;101208.44;6146565;28;20243;-69
2023/11/26 01:20:29;;;;;;;3.03;2.07;;;;;;;1.77;100.00;101204.78;6143315;28;20238;-69
2023/11/26 01:23:50;;;;;;;2.03;1.80;;;;;;;1.80;100.00;101209.94;6144720;28;20782;-69
2023/11/26 01:27:12;;;;;;;6.33;2.60;;;;;;;1.78;100.00;101214.47;6143984;28;20696;-69
2023/11/26 01:30:33;;;;;;;4.63;2.37;;;;;;;1.79;100.00;101217.06;6115249;28;20230;-69
2023/11/26 01:33:54;;;;;;;1.57;1.43;;;;;;;1.69;100.00;101213.09;6144226;28;20351;-69
2023/11/26 01:37:15;;;;;;;3.80;1.83;;;;;;;1.63;100.00;101218.69;6139837;28;20265;-69
2023/11/26 01:40:39;;;;;;;1.67;1.40;;;;;;;1.64;100.00;101209.81;6118630;28;20226;-69
2023/11/26 01:44:01;;;;;;;2.73;1.47;;;;;;;1.67;100.00;101222.94;6143173;28;20556;-69
2023/11/26 01:47:24;;;;;;;3.07;1.73;;;;;;;1.67;100.00;101224.75;6143489;28;20230;-68
2023/11/26 01:50:45;;;;;;;2.67;2.47;;;;;;;1.59;100.00;101220.66;6143321;28;20290;-69
2023/11/26 01:54:06;;;;;;;1.73;1.63;;;;;;;1.58;100.00;101223.38;6143880;28;20234;-69
2023/11/26 01:57:27;;;;;;;2.83;1.97;;;;;;;1.60;100.00;101222.38;6136230;28;20628;-69
2023/11/26 02:00:49;;;;;;;1.53;1.40;;;;;;;1.57;100.00;101214.53;6137279;28;20234;-69
2023/11/26 02:04:10;;;;;;;1.37;1.07;;;;;;;1.56;100.00;101215.47;6125358;28;20601;-68
2023/11/26 02:07:31;;;;;;;4.60;2.33;;;;;;;1.61;100.00;101218.78;6136767;28;20230;-69
2023/11/26 02:10:52;;;;;;;2.37;1.73;;;;;;;1.54;100.00;101222.66;6126840;28;20234;-69
2023/11/26 02:14:13;;;;;;;2.03;1.57;;;;;;;1.48;100.00;101222.94;6135245;28;20254;-69
2023/11/26 02:17:35;;;;;;;1.30;1.20;;;;;;;1.44;100.00;101217.84;6137198;28;20243;-68
2023/11/26 02:20:56;;;;;;;2.50;2.30;;;;;;;1.46;100.00;101223.97;6125365;28;20238;-69
2023/11/26 02:24:25;;;;;;;2.80;1.93;;;;;;;1.49;100.00;101235.28;6125249;28;20234;-69
2023/11/26 02:27:47;;;;;;;2.60;1.10;;;;;;;1.46;100.00;101234.56;6139723;28;20242;-68
2023/11/26 02:31:09;;;;;;;2.33;2.13;;;;;;;1.48;100.00;101227.41;6138826;28;20234;-68
2023/11/26 02:34:30;;;;;;;2.93;2.43;;;;;;;1.54;100.00;101232.44;6143745;28;20239;-68
2023/11/26 02:37:52;;;;;;;2.90;1.37;;;;;;;1.52;100.00;101232.47;6138164;28;20258;-70
2023/11/26 02:41:12;;;;;;;2.07;1.47;;;;;;;1.46;100.00;101231.94;6148112;28;20397;-69
2023/11/26 02:44:35;;;;;;;3.53;1.57;;;;;;;1.37;100.00;101227.88;6132094;28;20277;-68
2023/11/26 02:47:56;;;;;;;3.13;1.90;;;;;;;1.41;100.00;101226.81;6146484;28;20624;-68
2023/11/26 02:51:18;;;;;;;1.53;1.43;;;;;;;1.31;100.00;101229.97;6150004;28;20223;-69
2023/11/26 02:54:39;;;;;;;1.37;1.27;;;;;;;1.37;100.00;101232.34;6147416;28;20231;-68
2023/11/26 02:58:00;;;;;;;1.57;1.47;;;;;;;1.34;100.00;101224.50;6153840;28;20230;-69
2023/11/26 03:01:29;;;;;;;1.43;1.30;;;;;;;1.36;100.00;101231.47;6138786;28;20290;-69
2023/11/26 03:04:53;;;;;;;1.93;1.17;;;;;;;1.36;100.00;101226.16;6144758;28;20222;-68
2023/11/26 03:08:32;;;;;;;1.83;1.40;;;;;;;1.37;100.00;101225.22;6145162;28;20226;-69
2023/11/26 03:15:33;;;;;;;1.67;1.57;;;;;;;1.31;100.00;101238.78;6145584;28;20530;-69
2023/11/26 03:18:55;;;;;;;2.07;1.40;;;;;;;1.35;100.00;101236.84;6149670;28;20250;-70
2023/11/26 03:22:17;;;;;;;2.40;1.53;;;;;;;1.30;100.00;101242.38;6143238;28;20842;-69
2023/11/26 03:25:38;;;;;;;1.40;1.27;;;;;;;1.33;100.00;101249.34;6147531;28;20234;-69
2023/11/26 03:28:59;;;;;;;1.03;0.93;;;;;;;1.27;100.00;101244.31;6146298;28;20237;-69
2023/11/26 03:32:20;;;;;;;1.30;1.20;;;;;;;1.19;100.00;101249.09;6144689;28;20250;-68
2023/11/26 03:35:42;;;;;;;1.87;1.70;;;;;;;1.18;100.00;101245.56;6132698;28;20262;-68
2023/11/26 03:39:04;;;;;;;1.57;1.40;;;;;;;1.22;100.00;101244.50;6147564;28;20231;-68
2023/11/26 03:42:25;;;;;;;1.80;1.70;;;;;;;1.26;100.00;101242.56;6144427;28;20886;-69
2023/11/26 03:45:47;;;;;;;2.90;2.13;;;;;;;1.35;100.00;101247.47;6144852;28;20231;-68
2023/11/26 03:49:07;;;;;;;2.00;1.00;;;;;;;1.46;100.00;101256.66;6122884;28;21336;-69
2023/11/26 03:52:29;;;;;;;1.40;1.30;;;;;;;1.52;100.00;101252.88;6143646;28;20285;-69
2023/11/26 03:55:50;;;;;;;1.73;1.63;;;;;;;1.58;100.00;101250.81;6130309;28;21815;-69
2023/11/26 03:59:11;;;;;;;3.70;1.27;;;;;;;1.62;100.00;101256.84;6148531;28;21307;-69
2023/11/26 04:02:33;;;;;;;2.57;1.37;;;;;;;1.61;100.00;101261.28;6152493;28;20230;-69
2023/11/26 04:05:54;;;;;;;2.40;1.93;;;;;;;1.65;100.00;101258.50;6142952;28;20597;-69
2023/11/26 04:09:18;;;;;;;1.10;1.00;;;;;;;1.49;100.00;101264.50;6125742;28;20242;-69
2023/11/26 04:12:39;;;;;;;1.87;1.57;;;;;;;1.46;100.00;101261.13;6145362;28;20246;-70
2023/11/26 04:16:00;;;;;;;1.30;1.10;;;;;;;1.46;100.00;101259.31;6129032;28;20262;-69
2023/11/26 04:19:20;;;;;;;1.50;1.40;;;;;;;1.63;100.00;101258.56;6144373;28;20234;-69
2023/11/26 04:22:41;;;;;;;1.23;1.13;;;;;;;1.74;100.00;101260.72;6144388;28;20254;-69
2023/11/26 04:26:04;;;;;;;2.77;1.10;;;;;;;1.68;100.00;101268.97;6143394;28;20230;-69
2023/11/26 04:29:26;;;;;;;1.80;1.70;;;;;;;1.64;100.00;101270.91;6140120;28;20239;-68
2023/11/26 04:32:47;;;;;;;2.37;2.17;;;;;;;1.67;100.00;101277.91;6141824;28;20226;-68
2023/11/26 04:36:08;;;;;;;1.50;1.40;;;;;;;1.65;100.00;101274.44;6144152;28;20231;-69
2023/11/26 04:39:28;;;;;;;2.00;1.47;;;;;;;1.74;100.00;101279.31;6145638;28;20784;-68
2023/11/26 04:42:50;;;;;;;3.17;1.20;;;;;;;1.79;100.00;101275.53;6143509;28;20250;-68
2023/11/26 04:46:12;;;;;;;1.50;1.17;;;;;;;1.72;100.00;101271.44;6142592;28;20235;-68
2023/11/26 04:49:34;;;;;;;1.13;1.03;;;;;;;1.67;100.00;101278.72;6116746;28;20238;-69
2023/11/26 04:52:55;;;;;;;2.53;1.57;;;;;;;1.65;100.00;101279.75;6150051;28;20239;-69
2023/11/26 04:56:16;;;;;;;1.77;1.10;;;;;;;1.65;100.00;101285.91;6135360;28;20226;-69
2023/11/26 04:59:39;;;;;;;1.43;1.33;;;;;;;1.52;100.00;101277.63;6144064;28;20329;-68
2023/11/26 05:03:03;;;;;;;1.47;1.20;;;;;;;1.41;100.00;101282.59;6151126;28;20242;-68
2023/11/26 05:06:24;;;;;;;2.13;1.93;;;;;;;1.58;100.00;101285.34;6149038;28;20321;-70
2023/11/26 05:09:44;;;;;;;3.20;2.00;;;;;;;1.51;100.00;101283.03;6153174;28;20311;-67
2023/11/26 05:13:06;;;;;;;3.00;1.93;;;;;;;1.45;100.00;101281.53;6151806;28;20588;-68
2023/11/26 05:16:28;;;;;;;1.30;1.17;;;;;;;1.38;100.00;101290.69;6150743;28;20223;-69
2023/11/26 05:19:48;;;;;;;2.20;2.00;;;;;;;1.52;100.00;101306.00;6153387;28;20239;-69
2023/11/26 05:23:10;;;;;;;1.30;1.20;;;;;;;1.56;100.00;101289.84;6151296;28;20230;-69
2023/11/26 05:26:31;;;;;;;1.13;1.07;;;;;;;1.50;100.00;101289.28;6139082;28;20234;-69
2023/11/26 05:29:53;;;;;;;2.00;1.63;;;;;;;1.35;100.00;101288.19;6152141;28;20500;-69
2023/11/26 05:33:15;;;;;;;4.30;2.47;;;;;;;1.54;100.00;101312.13;6151185;28;20549;-69
2023/11/26 05:36:37;;;;;;;1.10;1.00;;;;;;;1.49;100.00;101301.69;6150851;28;20265;-69
2023/11/26 05:39:57;;;;;;;1.00;0.90;;;;;;;1.67;100.00;101304.47;6151817;28;20365;-69
2023/11/26 05:43:19;;;;;;;2.20;1.80;;;;;;;1.63;100.00;101285.13;6149898;28;20235;-69
2023/11/26 05:46:42;;;;;;;1.30;1.20;;;;;;;1.59;100.00;101275.56;6150160;28;20257;-69
2023/11/26 05:50:05;;;;;;;1.00;0.90;;;;;;;1.39;100.00;101263.22;6149944;28;20728;-69
2023/11/26 05:53:26;;;;;;;1.80;1.43;;;;;;;1.52;100.00;101285.59;6147404;28;20250;-69
2023/11/26 05:56:47;;;;;;;1.70;1.43;;;;;;;1.80;100.00;101285.22;6143276;28;20238;-70
2023/11/26 06:00:09;;;;;;;1.30;1.10;;;;;;;1.99;100.00;101283.44;6136995;28;20321;-70
2023/11/26 06:03:33;;;;;;;2.30;1.63;;;;;;;2.00;100.00;101281.63;6145940;28;20237;-68
2023/11/26 06:06:55;;;;;;;1.00;0.90;;;;;;;1.98;100.00;101278.19;6143285;28;20242;-68
2023/11/26 06:10:17;;;;;;;0.93;0.80;;;;;;;1.78;100.00;101263.16;6145837;28;20568;-68
2023/11/26 06:13:38;;;;;;;1.10;1.00;;;;;;;1.79;100.00;101266.69;6147248;28;20242;-70
2023/11/26 06:16:59;;;;;;;3.23;2.27;;;;;;;1.87;100.00;101277.81;6146066;28;20242;-70
2023/11/26 06:20:20;;;;;;;1.40;1.30;;;;;;;2.01;100.00;101278.03;6149686;28;20234;-69
2023/11/26 06:23:42;;;;;;;2.57;1.13;;;;;;;1.98;100.00;101281.69;6153556;28;20242;-69
2023/11/26 06:27:04;;;;;;;2.73;1.60;;;;;;;1.89;100.00;101268.84;6151727;28;20227;-69
2023/11/26 06:30:25;;;;;;;2.70;1.13;;;;;;;2.10;100.00;101290.91;6150576;28;20242;-68
2023/11/26 06:33:46;;;;;;;1.50;1.40;;;;;;;2.20;100.00;101286.88;6152559;28;20262;-69
2023/11/26 06:37:07;;;;;;;1.97;1.33;;;;;;;2.14;100.00;101285.38;6149585;28;20317;-69
2023/11/26 06:40:30;;;;;;;1.17;1.00;;;;;;;2.02;100.00;101287.75;6152438;28;20230;-69
2023/11/26 06:43:51;;;;;;;1.10;1.00;;;;;;;2.05;100.00;101291.09;6151419;28;20265;-68
2023/11/26 06:47:12;;;;;;;1.43;1.33;;;;;;;2.14;100.00;101292.47;6151258;28;20309;-69
2023/11/26 06:50:35;;;;;;;1.70;1.03;;;;;;;2.21;100.00;101284.13;6134999;28;20234;-68
2023/11/26 06:53:57;;;;;;;2.03;1.20;;;;;;;2.24;100.00;101284.00;6148709;28;20325;-68
2023/11/26 06:57:20;;;;;;;1.30;1.20;;;;;;;2.18;100.00;101278.97;6148127;28;20246;-68
2023/11/26 07:00:41;;;;;;;0.70;0.70;;;;;;;2.10;100.00;101277.59;6142243;28;20242;-68
2023/11/26 07:04:02;;;;;;;1.40;1.07;;;;;;;2.12;100.00;101275.72;6139534;28;20230;-68
2023/11/26 07:07:23;;;;;;;1.37;1.23;;;;;;;2.10;100.00;101272.28;6126581;28;20307;-68
2023/11/26 07:10:43;;;;;;;1.40;1.30;;;;;;;1.83;100.00;101263.81;6144192;28;20257;-68
2023/11/26 07:14:06;;;;;;;1.43;1.33;;;;;;;1.67;100.00;101252.16;6146628;28;20494;-69
2023/11/26 07:17:29;;;;;;;1.27;1.17;;;;;;;1.68;100.00;101256.56;6144746;28;20230;-69
2023/11/26 07:20:51;;;;;;;2.40;1.07;;;;;;;1.63;100.00;101254.09;6151852;28;20246;-69
2023/11/26 07:24:12;;;;;;;5.83;2.40;;;;;;;1.71;100.00;101253.75;6145642;28;20641;-69
2023/11/26 07:27:32;;;;;;;1.53;1.23;;;;;;;1.76;100.00;101250.88;6154541;28;20230;-69
2023/11/26 07:30:55;;;;;;;1.10;1.00;;;;;;;1.76;100.00;101243.78;6154551;28;20231;-69
2023/11/26 07:34:16;;;;;;;5.00;1.37;;;;;;;1.85;100.00;101247.81;6156112;28;20234;-69
2023/11/26 07:37:37;;;;;;;1.50;1.30;;;;;;;1.92;100.00;101249.25;6155427;28;20230;-69
2023/11/26 07:40:58;;;;;;;2.20;1.90;;;;;;;1.99;100.00;101255.97;6157218;28;20637;-69
2023/11/26 07:44:20;;;;;;;3.37;1.33;;;;;;;2.21;100.00;101259.34;6155160;28;20242;-69
2023/11/26 07:47:42;;;;;;;1.93;1.83;;;;;;;2.57;100.00;101257.53;6154217;28;21386;-69
2023/11/26 07:51:03;;;;;;;1.10;1.10;;;;;;;2.76;100.00;101260.13;6153500;28;20238;-68
2023/11/26 07:54:25;;;;;;;1.70;1.60;;;;;;;2.85;100.00;101257.88;6152784;28;20234;-69
2023/11/26 07:57:45;;;;;;;3.03;1.70;;;;;;;2.82;100.00;101266.00;6147230;28;20586;-69
2023/11/26 08:01:07;;;;;;;1.27;0.90;;;;;;;2.74;100.00;101262.00;6146184;28;20230;-69
2023/11/26 08:04:29;;;;;;;2.13;1.50;;;;;;;2.70;100.00;101255.13;6144692;28;20238;-69
2023/11/26 08:07:51;;;;;;;1.37;1.20;;;;;;;2.63;100.00;101253.72;6153391;28;20230;-69
2023/11/26 08:11:13;;;;;;;1.80;1.70;;;;;;;2.75;100.00;101256.63;6153547;28;20246;-69
2023/11/26 08:14:33;;;;;;;2.53;2.17;;;;;;;2.98;100.00;101250.13;6132981;28;20226;-68
2023/11/26 08:17:55;;;;;;;1.70;1.60;;;;;;;3.03;100.00;101240.94;6146216;28;20254;-69
2023/11/26 08:21:17;;;;;;;1.27;1.17;;;;;;;3.00;100.00;101245.56;6142191;28;20238;-68
2023/11/26 08:24:42;;;;;;;1.87;1.30;;;;;;;2.90;100.00;101245.16;6143032;28;20321;-68
2023/11/26 08:28:02;;;;;;;2.13;1.93;;;;;;;2.97;100.00;101246.59;6143035;28;20235;-68
2023/11/26 08:31:27;;;;;;;1.93;1.83;;;;;;;3.03;100.00;101234.75;6138791;28;20234;-69
2023/11/26 08:34:51;;;;;;;2.40;2.20;;;;;;;3.13;100.00;101238.66;6126871;28;20360;-68
2023/11/26 08:38:14;;;;;;;2.50;2.30;;;;;;;2.92;100.00;101240.63;6140220;28;20231;-69
2023/11/26 08:41:36;;;;;;;1.63;1.53;;;;;;;2.94;100.00;101246.72;6130771;28;20241;-68
2023/11/26 08:44:57;;;;;;;2.53;1.70;;;;;;;3.02;100.00;101249.03;6137326;28;20242;-67
2023/11/26 08:48:18;;;;;;;1.47;1.33;;;;;;;3.06;100.00;101243.47;6141942;28;20242;-69
2023/11/26 08:51:40;;;;;;;1.53;1.43;;;;;;;3.03;100.00;101250.72;6144355;28;21168;-69
2023/11/26 08:55:04;;;;;;;2.30;1.50;;;;;;;2.98;100.00;101260.78;6149661;28;20247;-68
2023/11/26 08:58:24;;;;;;;1.77;1.67;;;;;;;2.95;100.00;101259.13;6150247;28;22488;-68
2023/11/26 09:01:46;;;;;;;2.53;1.43;;;;;;;2.97;100.00;101235.94;6146746;28;20234;-70
2023/11/26 09:05:08;;;;;;;1.13;1.10;;;;;;;2.81;100.00;101239.47;6145041;28;20242;-69
2023/11/26 09:08:30;;;;;;;2.30;2.10;;;;;;;3.03;100.00;101240.06;6146428;28;20566;-69
2023/11/26 09:11:52;;;;;;;13.83;6.53;;;;;;;2.93;100.00;101236.16;6150474;28;20226;-69
2023/11/26 09:15:13;;;;;;;255.57;151.37;;;;;;;2.97;100.00;101238.59;6148710;28;20238;-74
2023/11/26 09:18:36;;;;;;;14.63;13.57;;;;;;;2.98;100.00;101236.81;6150468;28;20245;-69
2023/11/26 09:22:01;;;;;;;54.27;50.20;;;;;;;3.58;100.00;101235.34;6150012;28;20238;-75
2023/11/26 09:25:22;;;;;;;25.70;23.03;;;;;;;3.82;100.00;101245.53;6149785;28;20242;-70
2023/11/26 09:28:45;;;;;;;3.80;2.67;;;;;;;3.98;100.00;101253.56;6146221;28;20305;-70
2023/11/26 09:32:07;;;;;;;1.73;1.60;;;;;;;4.11;100.00;101251.91;6141619;28;20231;-70
2023/11/26 09:35:27;;;;;;;1.20;1.10;;;;;;;3.76;100.00;101247.66;6146865;28;20852;-70
2023/11/26 09:38:48;;;;;;;2.40;2.20;;;;;;;3.81;100.00;101245.63;6128809;28;20231;-70
2023/11/26 09:42:11;;;;;;;2.57;2.33;;;;;;;3.59;100.00;101239.75;6103802;28;20261;-70
2023/11/26 09:45:33;;;;;;;1.57;1.47;;;;;;;3.60;100.00;101258.31;6142890;28;22023;-69
2023/11/26 09:48:55;;;;;;;2.87;2.67;;;;;;;3.72;100.00;101256.78;6145977;28;20230;-71
2023/11/26 09:52:18;;;;;;;3.27;1.30;;;;;;;3.66;100.00;101239.31;6144801;28;23178;-70
2023/11/26 09:55:40;;;;;;;1.53;1.20;;;;;;;3.41;100.00;101246.06;6138799;28;20304;-70
2023/11/26 09:59:03;;;;;;;2.10;1.90;;;;;;;3.48;100.00;101259.00;6144642;28;20234;-70
2023/11/26 10:02:25;;;;;;;1.73;1.30;;;;;;;3.61;100.00;101267.19;6131815;28;20262;-69
2023/11/26 10:05:46;;;;;;;4.00;2.40;;;;;;;3.79;100.00;101274.19;6140900;28;20238;-68
2023/11/26 10:09:17;;;;;;;2.23;1.40;;;;;;;3.61;100.00;101272.50;6142845;28;20238;-69
2023/11/26 10:12:54;;;;;;;1.60;1.50;;;;;;;3.16;100.00;101263.34;6137485;28;20241;-70
2023/11/26 10:16:28;;;;;;;1.80;1.70;;;;;;;3.33;100.00;101257.13;6137671;28;20223;-70
2023/11/26 10:19:52;;;;;;;1.83;1.73;;;;;;;3.46;100.00;101260.00;6126585;28;20234;-70
2023/11/26 10:23:14;;;;;;;2.40;2.20;;;;;;;3.72;100.00;101257.66;6138052;28;20257;-72
2023/11/26 10:26:36;;;;;;;2.40;2.20;;;;;;;3.80;100.00;101244.75;6134924;28;20242;-72
2023/11/26 10:29:57;;;;;;;3.00;2.37;;;;;;;3.85;100.00;101250.72;6141774;28;20465;-71
2023/11/26 10:33:18;;;;;;;1.47;1.37;;;;;;;3.78;100.00;101245.78;6140144;28;20313;-73
2023/11/26 10:36:42;;;;;;;1.50;1.30;;;;;;;3.84;100.00;101230.31;6141280;28;20605;-69
2023/11/26 10:40:03;;;;;;;1.73;1.63;;;;;;;3.69;100.00;101233.81;6140414;28;20507;-69
2023/11/26 10:43:24;;;;;;;1.90;1.50;;;;;;;3.46;100.00;101220.91;6141568;28;20227;-70
2023/11/26 10:46:46;;;;;;;2.10;2.00;;;;;;;3.65;100.00;101226.09;6142020;28;20341;-70
2023/11/26 10:50:10;;;;;;;1.83;1.40;;;;;;;3.46;100.00;101225.38;6133892;28;20234;-71
2023/11/26 10:53:39;;;;;;;2.00;1.80;;;;;;;3.37;100.00;101215.19;6121662;28;20226;-69
2023/11/26 10:57:09;;;;;;;2.90;2.70;;;;;;;3.19;100.00;101220.53;6132520;28;20238;-70
2023/11/26 11:00:34;;;;;;;2.90;2.07;;;;;;;3.35;100.00;101225.06;6135841;28;20302;-70
2023/11/26 11:03:56;;;;;;;2.27;1.77;;;;;;;3.50;100.00;101232.25;6130579;28;20234;-69
2023/11/26 11:07:17;;;;;;;2.13;1.90;;;;;;;3.42;100.00;101229.97;6122117;28;20235;-69
2023/11/26 11:10:48;;;;;;;1.77;1.67;;;;;;;3.68;100.00;101242.78;6125768;28;20235;-73
2023/11/26 11:14:11;;;;;;;3.03;2.00;;;;;;;4.00;100.00;101246.34;6120688;28;20624;-70
2023/11/26 11:17:31;;;;;;;2.77;2.53;;;;;;;4.21;100.00;101241.59;6132056;28;20802;-70
2023/11/26 11:21:05;;;;;;;2.13;1.87;;;;;;;4.25;100.00;101241.34;6134955;28;20234;-69
2023/11/26 11:24:26;;;;;;;3.43;1.60;;;;;;;4.02;100.00;101236.44;6140451;28;20598;-69
2023/11/26 11:27:54;;;;;;;2.43;2.30;;;;;;;3.77;100.00;101236.06;6132398;28;20239;-70
2023/11/26 11:31:16;;;;;;;2.17;1.70;;;;;;;4.24;100.00;101220.06;6138147;28;20234;-70
2023/11/26 11:34:37;;;;;;;2.27;2.07;;;;;;;4.40;100.00;101218.25;6140994;28;20235;-69
2023/11/26 11:38:04;;;;;;;2.37;2.17;;;;;;;4.27;100.00;101210.09;6142287;28;20557;-70
2023/11/26 11:41:25;;;;;;;1.53;1.43;;;;;;;4.41;100.00;101210.16;6139343;28;20238;-70
2023/11/26 11:44:49;;;;;;;2.13;1.93;;;;;;;4.48;100.00;101211.53;6143256;28;20277;-69
2023/11/26 11:48:10;;;;;;;2.40;1.30;;;;;;;4.44;100.00;101207.31;6146450;28;20234;-69
2023/11/26 11:51:32;;;;;;;3.07;1.63;;;;;;;4.56;100.00;101209.25;6137838;28;20747;-69
2023/11/26 11:55:04;;;;;;;2.17;1.97;;;;;;;4.67;100.00;101205.97;6153812;28;20230;-69
2023/11/26 11:58:25;;;;;;;2.43;1.50;;;;;;;4.81;100.00;101201.50;6142338;28;20234;-70
2023/11/26 12:01:51;;;;;;;1.83;1.30;;;;;;;4.68;100.00;101205.84;6148709;28;20234;-69
2023/11/26 12:05:22;;;;;;;1.30;1.27;;;;;;;4.31;100.00;101203.63;6152894;28;20247;-69
2023/11/26 12:08:44;;;;;;;1.70;1.57;;;;;;;4.50;100.00;101200.75;6152249;28;20314;-69
2023/11/26 12:12:07;;;;;;;3.03;2.17;;;;;;;4.25;100.00;101198.66;6156992;28;20344;-70
2023/11/26 12:15:28;;;;;;;2.50;2.30;;;;;;;4.44;100.00;101190.44;6155989;28;20549;-71
2023/11/26 12:18:56;;;;;;;2.90;2.70;;;;;;;4.69;100.00;101196.88;6153274;28;20621;-70
2023/11/26 12:22:16;;;;;;;2.87;2.47;;;;;;;4.58;100.00;101202.00;6144830;28;20238;-70
2023/11/26 12:25:37;;;;;;;4.67;3.60;;;;;;;4.07;100.00;101194.34;6153079;28;21134;-70
2023/11/26 12:28:59;;;;;;;3.33;3.07;;;;;;;4.21;100.00;101199.78;6153553;28;20230;-70
2023/11/26 12:32:26;;;;;;;5.07;3.27;;;;;;;4.17;100.00;101200.91;6153960;28;20707;-71
2023/11/26 12:35:48;;;;;;;3.30;3.00;;;;;;;4.32;100.00;101202.66;6152564;28;20637;-70
2023/11/26 12:39:11;;;;;;;6.90;4.67;;;;;;;4.31;100.00;101197.41;6146322;28;20612;-69
2023/11/26 12:42:31;;;;;;;3.80;3.37;;;;;;;4.18;100.00;101197.28;6140567;28;20571;-69
2023/11/26 12:46:07;;;;;;;5.00;3.93;;;;;;;3.95;100.00;101190.56;6152464;28;20249;-69
2023/11/26 12:49:28;;;;;;;3.47;3.17;;;;;;;3.86;100.00;101203.56;6157049;28;20234;-69
2023/11/26 12:52:51;;;;;;;3.90;3.53;;;;;;;3.79;100.00;101194.19;6155671;28;20321;-71
2023/11/26 12:56:19;;;;;;;4.97;4.40;;;;;;;3.49;100.00;101190.53;6154777;28;20507;-70
2023/11/26 12:59:47;;;;;;;4.03;3.67;;;;;;;3.71;100.00;101199.94;6145100;28;20616;-69
2023/11/26 13:03:09;;;;;;;7.07;5.67;;;;;;;3.58;100.00;101198.03;6157019;28;20779;-70
2023/11/26 13:06:30;;;;;;;14.80;5.63;;;;;;;3.20;100.00;101185.00;6156108;28;20325;-69
2023/11/26 13:09:54;;;;;;;5.47;4.50;;;;;;;3.40;100.00;101178.56;6154727;28;20234;-70
2023/11/26 13:13:22;;;;;;;4.73;4.17;;;;;;;3.38;100.00;101174.28;6139191;28;20322;-70
2023/11/26 13:16:43;;;;;;;4.77;4.23;;;;;;;3.55;100.00;101172.41;6157227;28;20230;-69
2023/11/26 13:20:12;;;;;;;4.40;3.93;;;;;;;3.76;100.00;101178.34;6155567;28;20246;-70
2023/11/26 13:23:33;;;;;;;4.23;3.83;;;;;;;3.53;100.00;101176.09;6156147;28;20615;-69
2023/11/26 13:26:55;;;;;;;5.07;3.50;;;;;;;3.39;100.00;101171.53;6157780;28;20667;-70
2023/11/26 13:30:16;;;;;;;4.93;3.90;;;;;;;3.40;100.00;101170.56;6158377;28;20239;-69
2023/11/26 13:33:37;;;;;;;4.07;3.17;;;;;;;3.65;100.00;101167.44;6159131;28;20226;-70
2023/11/26 13:36:58;;;;;;;4.43;4.03;;;;;;;3.49;100.00;101159.44;6157275;28;20547;-69
2023/11/26 13:40:19;;;;;;;4.80;3.80;;;;;;;3.61;100.00;101161.41;6155281;28;20862;-70
2023/11/26 13:43:41;;;;;;;3.53;3.07;;;;;;;3.78;100.00;101155.13;6157316;28;20234;-70
2023/11/26 13:47:02;;;;;;;4.23;3.90;;;;;;;3.71;100.00;101148.44;6156574;28;20230;-70
2023/11/26 13:50:23;;;;;;;6.43;3.83;;;;;;;3.81;100.00;101146.97;6143591;28;20313;-69
2023/11/26 13:53:44;;;;;;;3.77;3.30;;;;;;;3.60;100.00;101148.19;6150397;28;20234;-69
2023/11/26 13:57:05;;;;;;;3.50;3.10;;;;;;;3.47;100.00;101144.47;6143458;28;20230;-70
2023/11/26 14:00:27;;;;;;;4.80;3.40;;;;;;;3.42;100.00;101143.88;6157176;28;20624;-69
2023/11/26 14:03:48;;;;;;;5.70;4.43;;;;;;;3.16;100.00;101129.31;6153835;28;20329;-69
2023/11/26 14:07:10;;;;;;;10.00;4.43;;;;;;;3.19;100.00;101132.66;6153644;28;20242;-69
2023/11/26 14:10:34;;;;;;;4.10;3.40;;;;;;;2.86;100.00;101144.25;6152633;28;20242;-69
2023/11/26 14:13:55;;;;;;;5.33;4.80;;;;;;;2.81;100.00;101140.97;6153590;28;20252;-69
2023/11/26 14:17:17;;;;;;;8.37;4.30;;;;;;;2.76;100.00;101141.22;6154786;28;20616;-70
2023/11/26 14:20:38;;;;;;;4.20;3.80;;;;;;;2.67;100.00;101147.00;6155355;28;20231;-69
2023/11/26 14:23:59;;;;;;;4.67;2.87;;;;;;;2.72;100.00;101147.66;6144845;28;20235;-69
2023/11/26 14:27:20;;;;;;;5.50;3.10;;;;;;;2.80;100.00;101147.22;6147906;28;20243;-70
2023/11/26 14:30:41;;;;;;;7.10;3.77;;;;;;;3.01;100.00;101149.63;6156415;28;20322;-69
2023/11/26 14:34:03;;;;;;;3.63;3.00;;;;;;;3.14;100.00;101149.84;6156016;28;20685;-68
2023/11/26 14:37:24;;;;;;;4.50;3.83;;;;;;;3.04;100.00;101145.94;6153202;28;20226;-69
2023/11/26 14:40:45;;;;;;;6.87;4.00;;;;;;;2.92;100.00;101138.63;6154325;28;20230;-70
2023/11/26 14:44:06;;;;;;;5.37;3.97;;;;;;;2.84;100.00;101147.00;6155553;28;20234;-70
2023/11/26 14:47:27;;;;;;;3.60;3.30;;;;;;;2.79;100.00;101142.88;6143223;28;20250;-70
2023/11/26 14:50:49;;;;;;;4.00;2.97;;;;;;;2.77;100.00;101145.63;6152916;28;20226;-70
2023/11/26 14:54:10;;;;;;;5.70;4.30;;;;;;;2.86;100.00;101129.13;6155761;28;20238;-70
2023/11/26 14:57:31;;;;;;;6.03;4.73;;;;;;;2.97;100.00;101136.56;6155498;28;20277;-70
2023/11/26 15:00:52;;;;;;;4.60;3.87;;;;;;;3.01;100.00;101143.44;6150825;28;20230;-70
2023/11/26 15:04:13;;;;;;;4.93;3.47;;;;;;;2.87;100.00;101135.34;6143762;28;20376;-70
2023/11/26 15:07:40;;;;;;;3.50;3.20;;;;;;;2.74;100.00;101135.13;6146197;28;20242;-70
2023/11/26 15:11:01;;;;;;;4.63;3.77;;;;;;;2.90;100.00;101130.69;6154386;28;20238;-69
2023/11/26 15:14:24;;;;;;;3.70;3.40;;;;;;;3.08;100.00;101134.19;6152695;28;20234;-69
2023/11/26 15:17:45;;;;;;;5.77;3.67;;;;;;;2.88;100.00;101134.41;6152319;28;20235;-69
2023/11/26 15:21:06;;;;;;;3.97;3.60;;;;;;;2.97;100.00;101134.75;6155246;28;20258;-69
2023/11/26 15:24:28;;;;;;;5.33;4.23;;;;;;;2.87;100.00;101122.03;6154884;28;21365;-70
2023/11/26 15:27:49;;;;;;;6.17;4.70;;;;;;;2.75;100.00;101134.19;6155994;28;20814;-70
2023/11/26 15:31:10;;;;;;;4.90;3.93;;;;;;;2.91;100.00;101127.09;6156491;28;20633;-70
2023/11/26 15:34:33;;;;;;;3.67;3.30;;;;;;;2.98;100.00;101132.97;6153098;28;20263;-69
2023/11/26 15:37:54;;;;;;;5.37;3.53;;;;;;;2.86;100.00;101122.94;6150036;28;20230;-70
2023/11/26 15:41:20;;;;;;;3.93;3.63;;;;;;;2.90;100.00;101127.19;6157396;28;20725;-70
2023/11/26 15:44:41;;;;;;;6.40;5.63;;;;;;;2.90;100.00;101128.03;6147941;28;20230;-71